Flight Track Log - Related Links

Times and Time Zones

All times are in EDT time to prevent confusion due to time zone crossing. See the SWA720 flight status page for this flight to view local times or setup timezone preferences in your user account.

Time Position Orientation Groundspeed Altitude Reporting Facility
EDT Latitude Longitude Course Direction KTS MPH feet Rate Location/Type
Fri 07:20:12 AM 39.1533 -76.7800 90° East 190 219 4,000  Level Washington Center
Fri 07:21:13 AM 39.1103 -76.7178 132° Southeast 116 133 6,900 3,328 Climbing Washington Center
Fri 07:22:11 AM 39.1194 -76.6217 83° East 158 182 10,600 3,407 Climbing Washington Center
Fri 07:23:11 AM 39.1267 -76.5094 85° East 233 268 13,600 2,132 Climbing Washington Center
Fri 07:24:12 AM 39.1317 -76.3969 87° East 275 316 14,900 1,180 Climbing Washington Center
Fri 07:25:00 AM 39.1667 -76.6058 90° East  Level FlightAware Approximate
Fri 07:25:13 AM 39.1469 -76.2633 82° East 317 365 16,000  Level Washington Center
Fri 07:26:11 AM 39.1644 -76.1350 80° East 341 392 15,900 303 Descending Washington Center
Fri 07:27:12 AM 39.1753 -76.0092 84° East 354 407 16,600 1,587 Climbing Washington Center
Fri 07:28:12 AM 39.2006 -75.8808 76° East 354 407 19,100 2,284 Climbing Washington Center
Fri 07:29:26 AM 39.2758 -75.7767 47° Northeast 373 429 21,700 2,336 Climbing Washington Center
Fri 07:30:23 AM 39.3719 -75.6481 46° Northeast 391 450 24,200 2,288 Climbing Washington Center
Fri 07:31:24 AM 39.4594 -75.5378 44° Northeast 413 475 26,200 1,820 Climbing Washington Center
Fri 07:32:25 AM 39.5489 -75.4192 46° Northeast 437 503 27,900 1,600 Climbing Washington Center
Fri 07:33:24 AM 39.6422 -75.2978 45° Northeast 449 517 29,400 1,478 Climbing Washington Center
Fri 07:34:39 AM 39.7667 -75.1189 48° Northeast 474 545 31,200 1,765 Climbing New York Center
Fri 07:35:40 AM 39.8611 -74.9842 48° Northeast 497 572 33,400 1,869 Climbing New York Center
Fri 07:36:41 AM 39.9717 -74.8608 41° Northeast 497 572 35,000 793 Climbing New York Center
Fri 07:37:41 AM 40.0775 -74.7586 36° Northeast 492 566 35,000  Level New York Center
Fri 07:38:40 AM 40.1786 -74.6639 36° Northeast 492 566 35,000  Level New York Center
Fri 07:39:41 AM 40.3033 -74.5458 36° Northeast 497 572 35,000  Level New York Center
Fri 07:40:39 AM 40.4108 -74.4400 37° Northeast 497 572 35,000  Level New York Center
Fri 07:41:39 AM 40.5183 -74.3311 38° Northeast 497 572 35,000  Level New York Center
Fri 07:42:41 AM 40.6297 -74.2275 35° Northeast 497 572 35,000  Level New York Center
Fri 07:43:39 AM 40.7369 -74.1206 37° Northeast 492 566 35,000  Level New York Center
Fri 07:45:54 AM 40.9900 -73.9442 28° Northeast 470 541 35,000  Level Boston Center
Fri 07:46:54 AM 41.1233 -73.9336 North 465 535 35,000  Level Boston Center
Fri 07:47:54 AM 41.2528 -73.9256 North 465 535 35,000  Level Boston Center
Fri 07:48:54 AM 41.3861 -73.9147 North 465 535 35,000  Level Boston Center
Fri 07:49:54 AM 41.5197 -73.9011 North 471 542 35,000 -100 Level Boston Center
Fri 07:50:54 AM 41.6553 -73.8933 North 476 548 34,800 -550 Descending Boston Center
Fri 07:51:54 AM 41.7597 -73.8844 North 476 548 33,900 -900 Descending Boston Center
Fri 07:52:54 AM 41.9286 -73.8744 North 476 548 33,000 -900 Descending Boston Center
Fri 07:53:54 AM 42.0400 -73.8042 25° Northeast 447 514 32,100 -900 Descending Boston Center
Fri 07:54:54 AM 42.1125 -73.6686 54° Northeast 445 512 31,200 -950 Descending Boston Center
Fri 07:55:54 AM 42.1869 -73.5189 56° Northeast 461 531 30,200 -1,000 Descending Boston Center
Fri 07:56:54 AM 42.2589 -73.3769 56° Northeast 466 536 29,200 -1,500 Descending Boston Center
Fri 07:57:54 AM 42.3331 -73.2264 56° Northeast 445 512 27,200 -1,850 Descending Boston Center
Fri 07:58:54 AM 42.3964 -73.0981 56° Northeast 457 526 25,500 -1,800 Descending Boston Center
Fri 07:59:54 AM 42.4617 -72.9664 56° Northeast 436 502 23,600 -1,900 Descending Boston Center
Fri 08:00:54 AM 42.5247 -72.8431 55° Northeast 413 475 21,700 -1,900 Descending Boston Center
Fri 08:01:54 AM 42.5711 -72.7108 64° Northeast 398 458 19,800 -1,950 Descending Boston Center
Fri 08:02:54 AM 42.6192 -72.5669 66° East 374 430 17,800 -1,900 Descending Boston Center
Fri 08:03:54 AM 42.6608 -72.4428 65° Northeast 369 425 16,000 -1,850 Descending Boston Center
Fri 08:04:54 AM 42.7006 -72.3186 66° East 358 412 14,100 -1,700 Descending Boston Center
Fri 08:05:54 AM 42.7294 -72.2139 69° East 343 395 12,600 -1,650 Descending Boston Center
Fri 08:06:54 AM 42.7686 -72.0867 67° East 329 379 10,800 -1,400 Descending Boston Center
Fri 08:07:54 AM 42.8017 -71.9903 65° Northeast 311 358 9,800 -1,300 Descending Boston Center
Fri 08:08:54 AM 42.8389 -71.8850 64° Northeast 282 325 8,200 -1,800 Descending Boston Center
Fri 08:09:54 AM 42.8697 -71.8028 63° Northeast 275 316 6,200 -1,900 Descending Boston Center
Fri 08:10:54 AM 42.8919 -71.7006 73° East 265 305 4,400 -1,350 Descending Boston Center
Fri 08:11:54 AM 42.8686 -71.6272 113° Southeast 230 265 3,500 -1,200 Descending Boston Center
Fri 08:12:54 AM 42.8678 -71.5419 91° East 208 239 2,000 -1,050 Descending Boston Center
Fri 08:13:54 AM 42.8903 -71.4964 56° Northeast 167 192 1,400 -700 Descending Boston Center
Fri 08:14:54 AM 42.9192 -71.4592 43° Northeast 134 154 600 -500 Descending Boston Center
Fri 08:15:54 AM 42.9439 -71.4219 48° Northeast 134 154 400 9,200 Descending Boston Center
Fri 08:16:54 AM 42.9708 -71.3844 46° Northeast 134 154 19,000 9,300 Climbing Boston Center
Fri 08:17:54 AM 42.9953 -71.3500 46° Northeast 134 154 19,000  Level Boston Center
Fri 08:18:54 AM 43.0222 -71.3128 45° Northeast 134 154 19,000  Level Boston Center
Fri 08:19:54 AM 43.0261 -71.3069 48° Northeast 134 154 19,000  Level Boston Center
Fri 08:21:00 AM 42.9381 -71.4285 222° Southwest  Level Estimated
Fri 08:28:00 AM 42.9328 -71.4358 222° Southwest  Level Estimated
Fri 08:29:00 AM 42.9328 -71.4358 222° Southwest  Level Estimated
Fri 08:30:00 AM 42.9328 -71.4358 222° Southwest  Level Estimated
Fri 08:31:00 AM 42.9328 -71.4358 222° Southwest  Level Estimated
Fri 08:32:00 AM 42.9328 -71.4358 222° Southwest  Level Estimated
Fri 08:33:00 AM 42.9328 -71.4358 222° Southwest  Level Estimated

Login

Don't have an account? Register now (free) for customized features, flight alerts, and more!